Time;durP1;ratioP1;P1;durP2;ratioP2;P2;SDS_P1;SDS_P2;PMS_P1;PMS_P2;Temp;Humidity;BMP_temperature;BMP_pressure;BME280_temperature;BME280_humidity;BME280_pressure;Samples;Min_cycle;Max_cycle;Signal;HPM_P1;HPM_P2
2021/03/27 00:00:41;;;;;;;68.25;37.67;;;;;;;9.54;53.77;100666.59;1680738;83;21940;-73
2021/03/27 00:03:19;;;;;;;65.62;37.48;;;;;;;9.50;53.91;100667.83;1676280;83;21228;-72
2021/03/27 00:06:07;;;;;;;66.70;37.40;;;;;;;9.55;53.90;100655.55;1671871;83;21603;-72
2021/03/27 00:08:59;;;;;;;66.45;37.67;;;;;;;9.45;53.95;100660.33;1672657;84;21261;-71
2021/03/27 00:11:56;;;;;;;65.78;35.80;;;;;;;9.49;53.95;100652.97;1671780;84;21222;-72
2021/03/27 00:14:42;;;;;;;64.27;36.50;;;;;;;9.51;53.76;100648.42;1676404;84;21446;-72
2021/03/27 00:17:22;;;;;;;63.90;36.28;;;;;;;9.53;53.66;100642.02;1651660;85;21228;-74
2021/03/27 00:19:55;;;;;;;67.62;36.38;;;;;;;9.48;53.86;100639.46;1712091;81;21142;-73
2021/03/27 00:22:26;;;;;;;64.10;35.52;;;;;;;9.52;53.75;100636.87;1711420;81;21814;-72
2021/03/27 00:25:19;;;;;;;67.22;37.85;;;;;;;9.49;53.75;100638.01;1679648;83;21516;-73
2021/03/27 00:28:33;;;;;;;66.60;36.08;;;;;;;9.50;53.78;100634.88;1671231;84;21666;-72
2021/03/27 00:31:16;;;;;;;65.37;35.17;;;;;;;9.47;53.90;100637.29;1667296;84;21262;-71
2021/03/27 00:33:46;;;;;;;62.10;35.35;;;;;;;9.38;54.07;100632.84;1667985;84;21173;-72
2021/03/27 00:36:16;;;;;;;64.05;36.15;;;;;;;9.41;54.06;100635.20;1671019;84;21196;-70
2021/03/27 00:38:46;;;;;;;58.90;33.18;;;;;;;9.44;53.98;100634.11;1667691;84;21685;-71
2021/03/27 00:41:17;;;;;;;65.05;35.17;;;;;;;9.43;53.96;100630.64;1665042;84;21617;-71
2021/03/27 00:43:51;;;;;;;64.47;35.68;;;;;;;9.44;53.90;100621.75;1668045;84;21240;-71
2021/03/27 00:46:17;;;;;;;59.85;34.85;;;;;;;9.43;53.97;100615.30;1712482;82;21187;-71
2021/03/27 00:48:48;;;;;;;61.10;34.18;;;;;;;9.44;53.93;100618.29;1713105;81;28355;-71
2021/03/27 00:51:22;;;;;;;62.85;35.58;;;;;;;9.46;53.85;100618.97;1697869;83;21252;-72
2021/03/27 00:54:16;;;;;;;61.53;33.90;;;;;;;9.48;53.86;100617.05;1711613;83;21993;-73
2021/03/27 00:57:08;;;;;;;59.93;33.10;;;;;;;9.49;53.96;100612.11;1715574;81;21233;-72
2021/03/27 00:59:39;;;;;;;59.08;33.50;;;;;;;9.50;53.98;100609.83;1693275;83;21546;-72
2021/03/27 01:02:08;;;;;;;62.58;35.03;;;;;;;9.49;53.96;100607.69;1666313;84;21263;-72
2021/03/27 01:04:34;;;;;;;61.95;34.75;;;;;;;9.50;53.93;100611.97;1668459;85;21154;-72
2021/03/27 01:07:07;;;;;;;62.20;35.28;;;;;;;9.50;53.90;100608.02;1642336;85;21920;-72
2021/03/27 01:09:50;;;;;;;60.35;34.15;;;;;;;9.47;54.07;100606.15;1667478;84;21245;-72
2021/03/27 01:12:38;;;;;;;63.45;33.53;;;;;;;9.48;53.95;100606.02;1665554;84;22467;-72
2021/03/27 01:15:21;;;;;;;61.02;33.45;;;;;;;9.44;54.08;100605.11;1667912;84;21173;-72
2021/03/27 01:17:49;;;;;;;56.48;31.93;;;;;;;9.43;54.32;100602.11;1672206;85;21221;-71
2021/03/27 01:20:29;;;;;;;56.40;32.78;;;;;;;9.52;54.19;100605.24;1673625;84;21858;-73
2021/03/27 01:22:55;;;;;;;59.63;33.00;;;;;;;9.57;54.08;100603.05;1666757;84;21190;-72
2021/03/27 01:25:29;;;;;;;59.18;32.83;;;;;;;9.62;54.04;100600.81;1673131;84;25402;-72
2021/03/27 01:28:11;;;;;;;58.15;32.93;;;;;;;9.65;54.12;100603.17;1679608;84;21167;-72
2021/03/27 01:30:48;;;;;;;61.73;33.33;;;;;;;9.65;54.71;100597.91;1650062;86;21223;-73
2021/03/27 01:33:31;;;;;;;60.73;33.10;;;;;;;9.70;55.16;100598.31;1665181;84;21269;-73
2021/03/27 01:36:11;;;;;;;61.15;33.30;;;;;;;9.68;56.13;100589.72;1675922;85;21838;-73
2021/03/27 01:38:48;;;;;;;59.45;32.15;;;;;;;9.70;56.75;100578.53;1649107;86;21236;-73
2021/03/27 01:41:22;;;;;;;58.23;32.95;;;;;;;9.69;57.54;100575.56;1666554;84;21232;-73
2021/03/27 01:44:17;;;;;;;56.20;31.75;;;;;;;9.64;58.47;100569.86;1671113;85;21235;-73
2021/03/27 01:47:06;;;;;;;54.15;30.48;;;;;;;9.62;59.02;100570.99;1665748;84;21248;-73
2021/03/27 01:49:55;;;;;;;55.78;30.72;;;;;;;9.61;58.84;100570.14;1668692;85;21554;-73
2021/03/27 01:52:45;;;;;;;53.15;30.55;;;;;;;9.61;59.38;100576.73;1663574;84;21202;-72
2021/03/27 01:55:34;;;;;;;55.78;31.77;;;;;;;9.57;59.61;100576.68;1649189;85;21659;-73
2021/03/27 01:58:11;;;;;;;58.38;32.48;;;;;;;9.59;60.03;100573.41;1676213;84;21157;-72
2021/03/27 02:00:55;;;;;;;;;;;;;;;9.62;59.85;100569.17;1649307;86;21364;-72
2021/03/27 02:03:28;;;;;;;54.13;31.07;;;;;;;9.61;60.24;100578.05;1624586;86;20649;-74
2021/03/27 02:06:17;;;;;;;57.53;32.78;;;;;;;9.67;60.06;100574.85;1664175;84;21254;-73
2021/03/27 02:09:14;;;;;;;57.80;34.13;;;;;;;9.64;60.34;100577.77;1670346;85;21756;-73
2021/03/27 02:11:57;;;;;;;57.05;33.40;;;;;;;9.69;60.12;100578.20;1671732;84;23584;-72
2021/03/27 02:14:40;;;;;;;64.05;35.65;;;;;;;9.69;60.18;100570.30;1630764;85;21281;-71
2021/03/27 02:17:45;;;;;;;66.70;35.55;;;;;;;9.68;60.03;100569.94;1669279;85;21239;-72
2021/03/27 02:21:04;;;;;;;62.55;34.92;;;;;;;9.69;60.12;100570.30;1660392;85;21615;-72
2021/03/27 02:24:10;;;;;;;62.43;35.65;;;;;;;9.72;59.79;100568.34;1670232;84;21201;-71
2021/03/27 02:26:58;;;;;;;68.07;38.83;;;;;;;9.67;59.81;100565.63;1662607;85;21219;-72
2021/03/27 02:29:38;;;;;;;81.15;44.25;;;;;;;9.67;59.96;100560.84;1671054;85;22055;-71
2021/03/27 02:32:23;;;;;;;78.02;43.08;;;;;;;9.58;60.22;100557.23;1669539;84;21291;-71
2021/03/27 02:35:22;;;;;;;70.65;39.95;;;;;;;9.56;60.21;100557.87;1692161;84;21212;-73
2021/03/27 02:38:13;;;;;;;68.78;40.10;;;;;;;9.59;60.36;100548.36;1666255;84;21626;-70
2021/03/27 02:40:43;;;;;;;76.00;40.38;;;;;;;9.57;60.36;100552.95;1666368;85;21245;-70
2021/03/27 02:43:22;;;;;;;80.85;42.78;;;;;;;9.59;60.12;100548.36;1637870;85;21348;-71
2021/03/27 02:45:57;;;;;;;73.37;41.42;;;;;;;9.54;60.00;100553.23;1649865;85;21268;-71
2021/03/27 02:48:50;;;;;;;74.90;41.40;;;;;;;9.57;59.69;100550.31;1668367;84;21242;-71
2021/03/27 02:51:29;;;;;;;75.17;41.73;;;;;;;9.51;59.79;100546.92;1663464;85;21143;-71
2021/03/27 02:54:25;;;;;;;76.37;43.52;;;;;;;9.49;59.56;100544.88;1626956;86;21210;-71
2021/03/27 02:57:26;;;;;;;74.80;42.27;;;;;;;9.38;59.66;100542.39;1669665;82;21110;-71
2021/03/27 03:00:39;;;;;;;72.82;41.98;;;;;;;9.23;60.00;100548.09;1730981;82;22724;-72
2021/03/27 03:03:23;;;;;;;78.00;43.85;;;;;;;9.22;59.98;100542.95;1702171;83;21207;-71
2021/03/27 03:05:57;;;;;;;78.37;45.35;;;;;;;9.20;60.11;100536.97;1722578;82;21677;-72
2021/03/27 03:08:34;;;;;;;81.95;45.95;;;;;;;9.20;60.01;100529.91;1693961;82;21202;-71
2021/03/27 03:11:12;;;;;;;82.37;45.30;;;;;;;9.16;60.16;100529.83;1695586;83;21211;-72
2021/03/27 03:13:52;;;;;;;78.95;44.67;;;;;;;9.06;60.26;100532.93;1688937;83;21247;-71
2021/03/27 03:16:39;;;;;;;82.27;47.17;;;;;;;9.06;60.42;100530.30;1693020;83;21214;-71
2021/03/27 03:19:21;;;;;;;84.95;47.08;;;;;;;9.00;60.46;100530.88;1699594;84;21546;-71
2021/03/27 03:22:02;;;;;;;76.65;45.80;;;;;;;8.89;60.78;100524.75;1698316;83;21174;-72
2021/03/27 03:24:38;;;;;;;83.95;47.55;;;;;;;8.82;61.01;100518.84;1696743;83;21151;-71
2021/03/27 03:27:33;;;;;;;84.77;48.90;;;;;;;8.83;61.22;100516.56;1703061;83;21260;-71
2021/03/27 03:30:23;;;;;;;81.45;47.55;;;;;;;8.86;60.89;100513.16;1700350;84;21252;-71
2021/03/27 03:33:01;;;;;;;87.45;50.08;;;;;;;8.83;61.02;100516.56;1704814;84;21665;-71
2021/03/27 03:36:00;;;;;;;90.32;49.60;;;;;;;8.72;61.44;100513.06;1694344;84;21215;-71
2021/03/27 03:38:54;;;;;;;89.67;50.10;;;;;;;8.67;61.72;100501.27;1696873;84;21635;-71
2021/03/27 03:41:44;;;;;;;94.42;52.53;;;;;;;8.59;62.03;100510.69;1697753;83;21231;-72
2021/03/27 03:44:24;;;;;;;93.58;53.02;;;;;;;8.59;62.11;100508.05;1703986;84;21241;-71
2021/03/27 03:47:12;;;;;;;90.83;51.85;;;;;;;8.56;62.06;100503.06;1703148;83;21201;-71
2021/03/27 03:49:55;;;;;;;91.65;51.58;;;;;;;8.61;62.01;100504.80;1699379;83;21227;-72
2021/03/27 03:52:52;;;;;;;91.95;52.80;;;;;;;8.61;62.13;100497.39;1700881;83;21594;-73
2021/03/27 03:55:35;;;;;;;89.80;51.88;;;;;;;8.66;62.21;100499.62;1697835;84;21209;-73
2021/03/27 03:58:50;;;;;;;98.10;53.20;;;;;;;8.73;61.85;100498.09;1688992;84;21641;-72
2021/03/27 04:01:34;;;;;;;92.20;52.95;;;;;;;8.79;61.93;100494.91;1670781;84;21302;-72
2021/03/27 04:04:20;;;;;;;94.13;53.38;;;;;;;8.87;61.64;100495.09;1745253;80;21220;-73
2021/03/27 04:06:46;;;;;;;95.05;54.80;;;;;;;8.83;61.45;100493.69;1747091;80;21666;-72
2021/03/27 04:09:38;;;;;;;95.03;53.83;;;;;;;8.75;61.75;100486.47;1719999;80;21229;-72
2021/03/27 04:12:21;;;;;;;96.37;55.48;;;;;;;8.61;62.17;100482.42;1713279;82;21145;-72
2021/03/27 04:15:04;;;;;;;93.97;53.90;;;;;;;8.54;62.39;100474.70;1703703;83;21260;-72
2021/03/27 04:17:54;;;;;;;95.38;54.95;;;;;;;8.55;62.55;100471.11;1702886;83;21570;-72
2021/03/27 04:21:11;;;;;;;100.78;56.75;;;;;;;8.48;62.83;100467.84;1719393;82;21324;-72
2021/03/27 04:24:07;;;;;;;101.58;58.92;;;;;;;8.35;63.26;100454.41;1672783;83;21768;-72
2021/03/27 04:26:41;;;;;;;103.70;57.90;;;;;;;8.31;63.44;100451.68;1696533;83;21253;-73
2021/03/27 04:29:42;;;;;;;100.45;56.02;;;;;;;8.24;63.82;100460.59;1683431;83;21252;-72
2021/03/27 04:32:35;;;;;;;104.70;57.30;;;;;;;8.16;64.09;100467.02;1722216;82;21172;-73
2021/03/27 04:35:33;;;;;;;101.85;56.05;;;;;;;8.23;63.86;100482.63;1697660;82;21265;-72
2021/03/27 04:38:25;;;;;;;100.12;57.67;;;;;;;8.29;63.71;100496.22;1680689;83;21246;-73
2021/03/27 04:41:08;;;;;;;105.10;58.30;;;;;;;8.34;63.50;100486.94;1716873;82;21272;-73
2021/03/27 04:43:40;;;;;;;105.32;58.25;;;;;;;8.29;63.74;100492.27;1696035;83;21283;-73
2021/03/27 04:46:27;;;;;;;100.97;57.65;;;;;;;8.38;63.43;100480.94;1689131;83;21264;-73
2021/03/27 04:49:13;;;;;;;104.45;59.38;;;;;;;8.38;63.46;100478.31;1762198;80;21616;-73
2021/03/27 04:52:02;;;;;;;105.72;59.05;;;;;;;8.36;63.54;100477.13;1750252;80;21208;-72
2021/03/27 04:54:57;;;;;;;99.40;57.08;;;;;;;8.47;63.37;100485.44;1694884;82;21251;-73
2021/03/27 04:57:50;;;;;;;105.10;59.63;;;;;;;8.49;63.33;100499.28;1682565;83;21304;-72
2021/03/27 05:01:05;;;;;;;105.25;58.48;;;;;;;8.57;63.08;100491.55;1707036;82;21248;-73
2021/03/27 05:03:53;;;;;;;105.35;58.45;;;;;;;8.61;62.98;100487.69;1712719;82;22020;-72
2021/03/27 05:06:30;;;;;;;103.22;58.60;;;;;;;8.69;62.85;100486.19;1684341;83;21558;-72
2021/03/27 05:09:19;;;;;;;102.05;58.75;;;;;;;8.70;62.73;100487.83;1684462;83;21284;-73
2021/03/27 05:12:20;;;;;;;105.60;59.73;;;;;;;8.75;62.75;100483.02;1690157;83;21240;-73
2021/03/27 05:15:09;;;;;;;105.00;61.20;;;;;;;8.78;62.66;100470.89;1689533;83;21259;-72
2021/03/27 05:17:47;;;;;;;107.27;60.58;;;;;;;8.87;62.66;100472.70;1704482;82;21347;-73
2021/03/27 05:20:26;;;;;;;101.07;59.45;;;;;;;8.96;62.25;100469.71;1679745;84;21332;-73
2021/03/27 05:23:15;;;;;;;107.97;59.40;;;;;;;8.93;62.25;100470.84;1709815;82;21255;-74
2021/03/27 05:26:07;;;;;;;104.65;59.35;;;;;;;8.96;62.35;100474.98;1688368;83;21232;-74
2021/03/27 05:28:59;;;;;;;106.12;58.45;;;;;;;9.03;62.28;100485.81;1661412;83;21248;-74
2021/03/27 05:31:54;;;;;;;109.30;59.95;;;;;;;9.00;62.27;100473.74;1708056;82;21251;-74
2021/03/27 05:34:38;;;;;;;105.95;60.43;;;;;;;8.94;62.23;100474.30;1687872;83;21528;-74
2021/03/27 05:37:31;;;;;;;105.83;60.30;;;;;;;9.04;62.20;100479.56;1718334;81;21165;-73
2021/03/27 05:40:36;;;;;;;107.83;61.08;;;;;;;9.07;62.16;100484.05;1685073;83;21173;-74
2021/03/27 05:43:33;;;;;;;111.75;60.58;;;;;;;9.12;62.09;100487.59;1687713;83;21251;-74
2021/03/27 05:46:42;;;;;;;105.97;61.13;;;;;;;9.18;62.00;100487.54;1689366;83;21232;-73
2021/03/27 05:49:40;;;;;;;106.80;60.28;;;;;;;9.18;61.96;100492.31;1684860;83;21224;-73
2021/03/27 05:52:29;;;;;;;110.08;62.20;;;;;;;9.25;61.81;100489.48;1709338;82;21232;-73
2021/03/27 05:55:27;;;;;;;114.50;62.45;;;;;;;9.21;61.85;100490.72;1678283;84;21251;-75
2021/03/27 05:58:27;;;;;;;108.12;61.98;;;;;;;9.28;61.84;100485.25;1711069;82;21695;-75
2021/03/27 06:01:27;;;;;;;113.15;64.30;;;;;;;9.21;62.45;100464.86;1685751;83;21303;-74
2021/03/27 06:04:07;;;;;;;109.70;62.35;;;;;;;9.11;63.57;100460.92;1709268;82;21251;-74
2021/03/27 06:07:06;;;;;;;113.05;64.12;;;;;;;9.03;64.35;100451.58;1698344;83;21263;-74
2021/03/27 06:09:40;;;;;;;111.60;62.08;;;;;;;9.02;64.86;100469.66;1690106;83;21205;-74
2021/03/27 06:12:30;;;;;;;109.57;63.85;;;;;;;9.10;64.86;100474.56;1690430;83;21220;-74
2021/03/27 06:15:16;;;;;;;106.45;62.73;;;;;;;9.17;64.23;100461.69;1708557;82;21291;-74
2021/03/27 06:18:05;;;;;;;112.12;63.28;;;;;;;9.14;63.96;100452.25;1689100;83;21252;-74
2021/03/27 06:20:42;;;;;;;109.60;62.73;;;;;;;9.18;63.99;100454.11;1666919;83;21528;-74
2021/03/27 06:23:37;;;;;;;115.88;63.95;;;;;;;9.16;64.11;100452.11;1691426;83;21194;-74
2021/03/27 06:26:27;;;;;;;116.30;64.53;;;;;;;9.25;63.99;100455.22;1690275;83;21557;-74
2021/03/27 06:29:05;;;;;;;104.75;60.78;;;;;;;9.37;63.66;100456.38;1636818;83;22309;-75
2021/03/27 06:31:44;;;;;;;;;;;;;;;9.39;63.84;100450.00;1717363;82;21649;-73
2021/03/27 06:35:03;;;;;;;110.42;62.33;;;;;;;9.49;63.56;100457.42;1690354;83;20295;-74
2021/03/27 06:37:46;;;;;;;110.88;62.33;;;;;;;9.61;63.14;100456.76;1678697;83;21256;-73
2021/03/27 06:40:49;;;;;;;103.40;60.73;;;;;;;9.73;63.02;100456.61;1706243;82;21211;-74
2021/03/27 06:43:53;;;;;;;104.83;60.88;;;;;;;9.85;62.83;100443.56;1686122;83;21233;-74
2021/03/27 06:46:57;;;;;;;109.00;63.60;;;;;;;9.91;62.34;100446.95;1613992;85;21585;-75
2021/03/27 06:49:43;;;;;;;110.20;63.92;;;;;;;9.86;62.51;100439.47;1679428;82;21232;-75
2021/03/27 06:52:36;;;;;;;108.53;63.20;;;;;;;9.88;62.47;100435.36;1679596;84;21228;-74
2021/03/27 06:55:28;;;;;;;110.97;63.63;;;;;;;9.91;62.48;100436.39;1711887;82;21244;-75
2021/03/27 06:58:48;;;;;;;112.15;62.62;;;;;;;9.91;62.80;100435.08;1678128;83;21933;-74
2021/03/27 07:01:40;;;;;;;112.32;63.33;;;;;;;9.91;62.73;100439.03;1710811;82;21228;-73
2021/03/27 07:04:26;;;;;;;116.22;64.15;;;;;;;9.97;62.83;100434.50;1678527;83;21266;-73
2021/03/27 07:07:22;;;;;;;112.55;63.75;;;;;;;9.96;63.08;100430.22;1714718;82;21510;-74
2021/03/27 07:10:42;;;;;;;125.22;65.50;;;;;;;10.09;62.85;100433.83;1713544;82;21205;-73
2021/03/27 07:14:02;;;;;;;110.05;60.58;;;;;;;10.12;62.42;100428.27;1687130;83;21657;-75
2021/03/27 07:16:56;;;;;;;111.65;62.48;;;;;;;10.18;62.16;100430.81;1683607;83;21526;-73
2021/03/27 07:19:59;;;;;;;110.60;62.98;;;;;;;10.20;62.17;100430.17;1691658;83;21195;-75
2021/03/27 07:23:12;;;;;;;104.47;61.23;;;;;;;10.29;61.97;100427.97;1695631;83;21191;-73
2021/03/27 07:25:57;;;;;;;105.50;60.95;;;;;;;10.29;61.91;100430.61;1685174;83;21200;-73
2021/03/27 07:28:37;;;;;;;111.40;62.13;;;;;;;10.48;61.47;100424.91;1690936;83;21380;-73
2021/03/27 07:31:20;;;;;;;107.70;61.13;;;;;;;10.56;61.13;100419.70;1692355;84;21245;-74
2021/03/27 07:33:59;;;;;;;110.42;63.75;;;;;;;10.70;60.99;100426.28;1687716;84;21161;-74
2021/03/27 07:36:56;;;;;;;110.90;60.38;;;;;;;10.82;60.93;100424.26;1694160;84;22295;-74
2021/03/27 07:39:52;;;;;;;102.58;58.90;;;;;;;10.91;60.49;100419.39;1688231;83;21246;-74
2021/03/27 07:42:56;;;;;;;105.10;59.73;;;;;;;11.09;60.40;100421.53;1693613;83;21343;-74
2021/03/27 07:45:36;;;;;;;111.72;59.50;;;;;;;11.25;59.99;100419.50;1691979;84;21481;-74
2021/03/27 07:48:27;;;;;;;104.58;58.38;;;;;;;11.36;59.61;100413.13;1691025;83;21196;-74
2021/03/27 07:51:38;;;;;;;108.15;59.98;;;;;;;11.49;59.50;100408.24;1688786;84;21585;-74
2021/03/27 07:54:27;;;;;;;99.80;58.50;;;;;;;11.65;59.45;100400.92;1693914;83;21189;-74
2021/03/27 07:57:32;;;;;;;98.78;56.68;;;;;;;11.95;58.73;100396.13;1683844;84;21259;-73
2021/03/27 08:00:06;;;;;;;98.75;54.95;;;;;;;12.19;58.09;100403.31;1701154;83;21234;-74
2021/03/27 08:02:55;;;;;;;95.70;53.85;;;;;;;12.18;57.75;100377.84;1698595;83;21234;-73
2021/03/27 08:05:58;;;;;;;97.55;55.38;;;;;;;12.46;57.00;100402.75;1689313;83;21227;-74
2021/03/27 08:09:10;;;;;;;93.47;51.58;;;;;;;12.55;56.55;100400.92;1688228;83;21172;-73
2021/03/27 08:12:01;;;;;;;91.32;52.27;;;;;;;12.69;56.41;100404.28;1694974;82;21230;-74
2021/03/27 08:14:49;;;;;;;99.65;54.67;;;;;;;12.85;56.71;100402.14;1722091;82;21160;-73
2021/03/27 08:17:25;;;;;;;91.17;52.00;;;;;;;12.83;56.20;100401.96;1693177;83;21245;-74
2021/03/27 08:20:29;;;;;;;94.32;51.90;;;;;;;13.00;56.29;100400.97;1752163;80;21232;-75
2021/03/27 08:23:27;;;;;;;93.12;51.73;;;;;;;13.13;55.67;100393.01;1720721;82;21248;-73
2021/03/27 08:26:17;;;;;;;88.52;50.55;;;;;;;13.24;55.52;100394.83;1682350;83;21205;-74
2021/03/27 08:29:30;;;;;;;92.20;51.85;;;;;;;13.42;55.24;100396.48;1757715;80;21273;-74
2021/03/27 08:32:36;;;;;;;84.62;46.95;;;;;;;13.54;55.59;100391.16;1669719;83;21266;-73
2021/03/27 08:35:44;;;;;;;85.87;46.37;;;;;;;13.70;54.92;100390.28;1706801;80;21160;-74
2021/03/27 08:38:45;;;;;;;77.15;43.60;;;;;;;13.90;54.43;100385.40;1760880;80;21597;-74
2021/03/27 08:41:32;;;;;;;77.17;43.78;;;;;;;14.12;53.89;100381.66;1661346;85;21280;-75
2021/03/27 08:44:42;;;;;;;84.65;46.48;;;;;;;14.29;53.09;100378.41;1718103;82;21204;-76
2021/03/27 08:47:41;;;;;;;83.78;46.50;;;;;;;14.44;52.84;100375.84;1696197;83;21216;-73
2021/03/27 08:50:42;;;;;;;78.85;44.30;;;;;;;14.49;52.12;100369.49;1754281;80;21590;-75
2021/03/27 08:53:31;;;;;;;73.87;41.85;;;;;;;14.62;51.71;100372.91;1766604;80;21178;-74
2021/03/27 08:56:42;;;;;;;79.60;42.78;;;;;;;14.77;51.20;100365.01;1749557;80;21191;-75
2021/03/27 08:59:37;;;;;;;81.35;44.30;;;;;;;14.83;50.91;100361.12;1755030;80;21273;-74
2021/03/27 09:02:57;;;;;;;79.65;44.27;;;;;;;14.86;50.58;100357.29;1746135;80;21246;-75
2021/03/27 09:05:45;;;;;;;73.65;41.60;;;;;;;14.97;50.44;100357.37;1710844;82;21212;-75
2021/03/27 09:08:35;;;;;;;66.90;38.42;;;;;;;15.12;50.17;100354.72;1689970;83;22335;-75
2021/03/27 09:11:15;;;;;;;72.82;40.88;;;;;;;15.15;49.69;100349.04;1683246;84;21229;-77
2021/03/27 09:13:59;;;;;;;71.60;40.67;;;;;;;15.36;49.40;100355.81;1717175;82;21233;-74
2021/03/27 09:16:53;;;;;;;76.05;41.60;;;;;;;15.58;49.20;100341.27;1696147;83;21191;-74
2021/03/27 09:19:43;;;;;;;69.77;38.42;;;;;;;15.67;48.56;100337.50;1684819;83;21220;-75
2021/03/27 09:22:50;;;;;;;76.57;41.58;;;;;;;15.77;48.21;100336.75;1687508;83;21215;-74
2021/03/27 09:25:50;;;;;;;76.47;43.33;;;;;;;15.76;48.17;100329.73;1685899;83;21899;-75
2021/03/27 09:28:51;;;;;;;81.53;43.87;;;;;;;15.85;48.63;100330.98;1697285;83;21496;-74
2021/03/27 09:31:56;;;;;;;77.35;43.52;;;;;;;15.94;48.43;100323.20;1678747;83;21218;-74
2021/03/27 09:34:52;;;;;;;64.17;37.58;;;;;;;15.94;48.02;100317.88;1646016;83;21267;-75
2021/03/27 09:38:14;;;;;;;71.70;38.50;;;;;;;16.06;47.76;100311.05;1706095;82;21414;-73
2021/03/27 09:40:57;;;;;;;68.95;37.30;;;;;;;16.08;47.18;100306.38;1686207;83;21282;-74
2021/03/27 09:44:03;;;;;;;68.57;38.00;;;;;;;16.26;47.15;100313.12;1673816;83;21234;-75
2021/03/27 09:46:58;;;;;;;63.75;36.20;;;;;;;16.35;46.88;100308.50;1682978;84;21744;-75
2021/03/27 09:49:35;;;;;;;73.15;41.65;;;;;;;16.37;46.41;100307.28;1711849;82;21250;-75
2021/03/27 09:52:12;;;;;;;70.40;40.33;;;;;;;16.56;47.23;100299.66;1680415;84;21177;-75
2021/03/27 09:55:16;;;;;;;70.87;38.30;;;;;;;16.50;46.95;100299.41;1706354;82;21209;-75
2021/03/27 09:57:56;;;;;;;72.08;39.10;;;;;;;16.61;46.09;100298.08;1688691;83;21216;-74
2021/03/27 10:01:02;;;;;;;70.67;38.88;;;;;;;16.76;46.08;100307.83;1679941;83;21243;-74
2021/03/27 10:04:02;;;;;;;69.47;38.60;;;;;;;16.94;46.09;100294.05;1709900;82;23901;-74
2021/03/27 10:06:46;;;;;;;74.27;41.20;;;;;;;16.98;45.76;100296.62;1679538;83;21744;-74
2021/03/27 10:09:37;;;;;;;71.15;39.80;;;;;;;17.04;46.00;100291.84;1714337;82;21393;-73
2021/03/27 10:12:39;;;;;;;70.52;37.40;;;;;;;17.14;45.91;100289.66;1683787;83;21189;-73
2021/03/27 10:15:44;;;;;;;68.02;37.55;;;;;;;17.18;45.37;100286.94;1667270;83;21199;-74
2021/03/27 10:18:33;;;;;;;56.25;34.55;;;;;;;17.19;44.67;100272.55;1685590;84;21251;-75
2021/03/27 10:21:42;;;;;;;63.35;35.78;;;;;;;17.38;44.65;100272.85;1707130;82;21748;-73
2021/03/27 10:24:33;;;;;;;64.00;34.88;;;;;;;17.52;44.25;100271.07;1685545;83;22023;-74
2021/03/27 10:27:19;;;;;;;64.65;36.85;;;;;;;17.63;44.13;100276.36;1695121;83;21294;-76
2021/03/27 10:30:02;;;;;;;59.83;34.73;;;;;;;17.76;43.92;100271.89;1712284;82;21615;-73
2021/03/27 10:32:53;;;;;;;62.40;34.20;;;;;;;17.95;43.80;100261.49;1688126;83;21172;-74
2021/03/27 10:35:39;;;;;;;54.40;30.50;;;;;;;18.04;43.32;100261.62;1679662;84;21297;-73
2021/03/27 10:38:58;;;;;;;61.73;30.00;;;;;;;18.12;42.54;100263.28;1712717;82;21216;-73
2021/03/27 10:41:41;;;;;;;57.00;32.58;;;;;;;18.20;42.16;100261.73;1685530;83;21192;-73
2021/03/27 10:44:37;;;;;;;59.48;32.83;;;;;;;18.19;42.30;100254.73;1687468;83;21239;-73
2021/03/27 10:47:11;;;;;;;61.00;32.50;;;;;;;18.26;42.51;100247.56;1651587;84;21262;-73
2021/03/27 10:49:57;;;;;;;59.38;31.85;;;;;;;18.27;41.72;100253.23;1672915;83;21261;-73
2021/03/27 10:52:53;;;;;;;55.90;30.65;;;;;;;18.39;41.69;100249.41;1700017;83;21676;-72
2021/03/27 10:56:08;;;;;;;50.75;29.90;;;;;;;18.49;41.43;100235.66;1694834;83;21219;-73
2021/03/27 10:59:31;;;;;;;51.92;28.47;;;;;;;18.50;41.20;100231.92;1693018;83;21683;-74
2021/03/27 11:02:17;;;;;;;44.40;23.50;;;;;;;18.58;40.24;100221.04;1697843;83;21195;-73
2021/03/27 11:05:12;;;;;;;39.20;21.68;;;;;;;18.71;38.71;100222.06;1679509;83;21688;-73
2021/03/27 11:08:06;;;;;;;40.23;22.02;;;;;;;18.78;38.63;100222.85;1690887;84;21628;-72
2021/03/27 11:10:49;;;;;;;38.48;21.85;;;;;;;18.84;38.32;100219.34;1691486;83;21226;-73
2021/03/27 11:13:45;;;;;;;41.63;20.62;;;;;;;18.92;38.05;100202.27;1691854;83;21639;-73
2021/03/27 11:16:22;;;;;;;44.35;20.43;;;;;;;18.91;37.17;100206.81;1692783;83;21171;-72
2021/03/27 11:19:08;;;;;;;;;;;;;;;18.88;36.68;100201.88;1720246;82;21675;-73
2021/03/27 11:22:02;;;;;;;34.25;19.00;;;;;;;18.99;36.24;100196.40;1698731;83;21070;-73
2021/03/27 11:25:02;;;;;;;36.80;19.45;;;;;;;18.92;36.69;100191.05;1687940;84;21199;-72
2021/03/27 11:28:06;;;;;;;32.00;17.30;;;;;;;18.94;35.40;100190.34;1688481;84;21649;-72
2021/03/27 11:30:40;;;;;;;36.05;18.92;;;;;;;19.12;35.97;100189.64;1692201;83;21204;-73
2021/03/27 11:33:52;;;;;;;36.58;19.40;;;;;;;19.28;36.45;100193.72;1688633;84;21625;-74
2021/03/27 11:36:25;;;;;;;35.55;18.17;;;;;;;19.24;36.07;100195.17;1694328;82;21196;-73
2021/03/27 11:39:09;;;;;;;40.63;19.50;;;;;;;19.43;35.32;100191.28;1691566;84;21216;-73
2021/03/27 11:41:38;;;;;;;39.10;18.73;;;;;;;19.65;34.42;100177.05;1695707;82;21263;-72
2021/03/27 11:44:31;;;;;;;37.25;19.12;;;;;;;19.73;34.52;100176.28;1661245;84;21247;-73
2021/03/27 11:47:04;;;;;;;36.73;17.82;;;;;;;19.79;34.45;100177.81;1692449;84;21255;-73
2021/03/27 11:49:52;;;;;;;34.05;17.55;;;;;;;19.82;34.02;100179.53;1690767;84;21148;-73
2021/03/27 11:52:23;;;;;;;39.53;18.90;;;;;;;19.91;33.86;100176.89;1687759;83;21196;-72
2021/03/27 11:54:56;;;;;;;35.17;18.15;;;;;;;19.82;33.76;100182.74;1688830;83;21236;-74
2021/03/27 11:57:36;;;;;;;41.35;19.80;;;;;;;19.80;33.74;100186.17;1660873;83;21262;-73
2021/03/27 12:03:39;;;;;;;32.35;17.65;;;;;;;19.91;33.63;100179.58;1679046;84;21252;-71
2021/03/27 12:06:35;;;;;;;32.42;17.87;;;;;;;19.87;33.42;100147.56;1678177;84;21600;-71
2021/03/27 12:09:30;;;;;;;36.70;18.50;;;;;;;20.16;33.78;100173.94;1688812;82;21522;-71
2021/03/27 12:12:20;;;;;;;39.95;20.35;;;;;;;20.02;33.45;100171.88;1684751;82;21183;-71
2021/03/27 12:14:59;;;;;;;29.85;17.10;;;;;;;20.11;33.49;100160.38;1694012;83;21195;-70
2021/03/27 12:18:08;;;;;;;35.08;18.42;;;;;;;20.30;33.44;100154.54;1749287;80;21227;-71
2021/03/27 12:20:45;;;;;;;34.45;18.65;;;;;;;20.31;32.70;100157.00;1732412;80;21784;-71
2021/03/27 12:23:22;;;;;;;33.77;18.63;;;;;;;20.42;32.74;100161.63;1774085;79;21308;-73
2021/03/27 12:26:28;;;;;;;30.65;17.37;;;;;;;20.52;32.63;100157.62;1741234;80;21247;-72
2021/03/27 12:29:18;;;;;;;33.73;16.97;;;;;;;20.78;32.51;100149.32;1705132;82;21518;-72
2021/03/27 12:32:25;;;;;;;29.40;16.17;;;;;;;20.92;32.34;100154.55;1678347;84;21228;-72
2021/03/27 12:34:54;;;;;;;;;;;;;;;20.89;32.10;100144.27;1684012;84;21705;-72
2021/03/27 12:37:35;;;;;;;30.17;16.35;;;;;;;20.91;30.95;100151.56;1689921;84;20347;-70
2021/03/27 12:40:28;;;;;;;34.88;16.93;;;;;;;20.97;31.13;100143.95;1693351;83;21225;-73
2021/03/27 12:43:05;;;;;;;30.57;16.10;;;;;;;21.07;31.50;100141.56;1690573;83;21250;-70
2021/03/27 12:45:44;;;;;;;;;;;;;;;21.23;31.03;100141.99;1687137;83;21247;-68
2021/03/27 12:48:46;;;;;;;25.00;13.80;;;;;;;21.46;30.52;100140.73;1668596;83;20657;-70
2021/03/27 12:51:44;;;;;;;28.83;15.28;;;;;;;21.57;30.26;100142.39;1690042;83;21330;-72
2021/03/27 12:54:38;;;;;;;31.73;16.05;;;;;;;21.69;30.31;100137.87;1695469;83;21195;-70
2021/03/27 12:57:36;;;;;;;26.50;14.95;;;;;;;21.83;30.46;100139.30;1699239;83;21236;-70